GLD352 SBCG-SBSI
Flight info
| Callsign | GLD352 |
|---|---|
| Flight time | 2h 5m |
| Altitude | 28000 |
| Route | POTK1A KOXAL UZ63 VULAK DCT TEREX UZ91 GATUK DCT |
| Aircraft | TBM8/M-SDFGIRY/S |
Departure
| Time | 2026-04-20 22:15 |
|---|---|
| Airport | Campo Grande Airport (SBCG) |
Arrival
| Time | 2026-04-21 00:20 |
|---|---|
| Airport | Presidente João Batista Figueiredo Airport (SBSI) |
| Time | Latitude | Longitude | Altitude | Speed | Heading |
|---|---|---|---|---|---|
| 2026-04-20 21:53 | -20.45868 | -54.67167 | 1834 ft | 0 kts | 133° |
| 2026-04-20 22:09 | -20.45915 | -54.67145 | 1834 ft | 18 kts | 168° |
| 2026-04-20 22:09 | -20.46091 | -54.67117 | 1834 ft | 30 kts | 170° |
| 2026-04-20 22:10 | -20.46302 | -54.67094 | 1833 ft | 23 kts | 170° |
| 2026-04-20 22:10 | -20.46453 | -54.67127 | 1834 ft | 25 kts | 216° |
| 2026-04-20 22:10 | -20.46601 | -54.67268 | 1834 ft | 30 kts | 221° |
| 2026-04-20 22:10 | -20.46737 | -54.67397 | 1834 ft | 29 kts | 221° |
| 2026-04-20 22:11 | -20.46894 | -54.67540 | 1833 ft | 29 kts | 221° |
| 2026-04-20 22:11 | -20.47031 | -54.67681 | 1833 ft | 26 kts | 223° |
| 2026-04-20 22:11 | -20.47154 | -54.67801 | 1833 ft | 22 kts | 221° |
| 2026-04-20 22:11 | -20.47259 | -54.67899 | 1833 ft | 18 kts | 223° |
| 2026-04-20 22:12 | -20.47345 | -54.67984 | 1833 ft | 15 kts | 223° |
| 2026-04-20 22:12 | -20.47417 | -54.68054 | 1834 ft | 13 kts | 222° |
| 2026-04-20 22:12 | -20.47475 | -54.68109 | 1834 ft | 10 kts | 221° |
| 2026-04-20 22:12 | -20.47521 | -54.68157 | 1834 ft | 10 kts | 224° |
| 2026-04-20 22:13 | -20.47593 | -54.68228 | 1834 ft | 19 kts | 221° |
| 2026-04-20 22:13 | -20.47701 | -54.68333 | 1834 ft | 11 kts | 221° |
| 2026-04-20 22:13 | -20.47792 | -54.68303 | 1833 ft | 13 kts | 132° |
| 2026-04-20 22:13 | -20.47798 | -54.68296 | 1833 ft | 0 kts | 131° |
| 2026-04-20 22:14 | -20.47806 | -54.68285 | 1834 ft | 7 kts | 130° |
| 2026-04-20 22:14 | -20.47811 | -54.68186 | 1835 ft | 34 kts | 47° |
| 2026-04-20 22:14 | -20.47504 | -54.67884 | 1834 ft | 84 kts | 41° |
| 2026-04-20 22:14 | -20.46979 | -54.67382 | 1920 ft | 113 kts | 39° |
| 2026-04-20 22:15 | -20.46355 | -54.66791 | 2120 ft | 128 kts | 41° |
| 2026-04-20 22:15 | -20.45616 | -54.66021 | 2139 ft | 162 kts | 44° |
| 2026-04-20 22:15 | -20.44837 | -54.65205 | 2671 ft | 155 kts | 37° |
| 2026-04-20 22:15 | -20.43982 | -54.64484 | 3063 ft | 158 kts | 38° |
| 2026-04-20 22:16 | -20.43136 | -54.63725 | 3492 ft | 159 kts | 39° |
| 2026-04-20 22:16 | -20.42309 | -54.62951 | 3928 ft | 158 kts | 42° |
| 2026-04-20 22:16 | -20.41495 | -54.62160 | 4350 ft | 158 kts | 42° |
| 2026-04-20 22:16 | -20.40557 | -54.61544 | 4799 ft | 159 kts | 16° |
| 2026-04-20 22:17 | -20.39466 | -54.61493 | 5198 ft | 163 kts | 351° |
| 2026-04-20 22:17 | -20.38429 | -54.62033 | 5646 ft | 169 kts | 322° |
| 2026-04-20 22:17 | -20.37631 | -54.62950 | 6013 ft | 172 kts | 315° |
| 2026-04-20 22:17 | -20.36803 | -54.63905 | 6403 ft | 174 kts | 316° |
| 2026-04-20 22:18 | -20.35994 | -54.64847 | 6766 ft | 175 kts | 315° |
| 2026-04-20 22:18 | -20.35172 | -54.65808 | 7137 ft | 176 kts | 315° |
| 2026-04-20 22:18 | -20.34335 | -54.66786 | 7524 ft | 176 kts | 315° |
| 2026-04-20 22:18 | -20.33523 | -54.67735 | 7910 ft | 176 kts | 315° |
| 2026-04-20 22:19 | -20.32686 | -54.68709 | 8317 ft | 176 kts | 315° |
| 2026-04-20 22:19 | -20.31870 | -54.69662 | 8693 ft | 177 kts | 315° |
| 2026-04-20 22:19 | -20.31028 | -54.70643 | 9079 ft | 177 kts | 315° |
| 2026-04-20 22:19 | -20.30196 | -54.71614 | 9458 ft | 178 kts | 314° |
| 2026-04-20 22:20 | -20.29359 | -54.72590 | 9842 ft | 179 kts | 314° |
| 2026-04-20 22:20 | -20.28519 | -54.73567 | 10194 ft | 179 kts | 314° |
| 2026-04-20 22:20 | -20.27677 | -54.74549 | 10535 ft | 180 kts | 314° |
| 2026-04-20 22:20 | -20.26889 | -54.75591 | 10873 ft | 181 kts | 307° |
| 2026-04-20 22:21 | -20.26140 | -54.76674 | 11216 ft | 182 kts | 308° |
| 2026-04-20 22:21 | -20.25379 | -54.77753 | 11557 ft | 182 kts | 308° |
| 2026-04-20 22:21 | -20.24618 | -54.78834 | 11908 ft | 183 kts | 308° |
| 2026-04-20 22:21 | -20.23854 | -54.79921 | 12255 ft | 184 kts | 308° |
| 2026-04-20 22:22 | -20.23088 | -54.81013 | 12596 ft | 184 kts | 307° |
| 2026-04-20 22:22 | -20.22320 | -54.82109 | 12960 ft | 185 kts | 307° |
| 2026-04-20 22:22 | -20.21548 | -54.83208 | 13314 ft | 186 kts | 307° |
| 2026-04-20 22:22 | -20.20773 | -54.84310 | 13677 ft | 186 kts | 307° |
| 2026-04-20 22:23 | -20.19995 | -54.85417 | 14010 ft | 187 kts | 308° |
| 2026-04-20 22:23 | -20.19023 | -54.86315 | 14305 ft | 187 kts | 332° |
| 2026-04-20 22:23 | -20.17798 | -54.86781 | 14633 ft | 187 kts | 343° |
| 2026-04-20 22:23 | -20.16551 | -54.87182 | 14950 ft | 188 kts | 342° |
| 2026-04-20 22:24 | -20.15301 | -54.87591 | 15267 ft | 188 kts | 342° |
| 2026-04-20 22:24 | -20.14047 | -54.88000 | 15588 ft | 189 kts | 342° |
| 2026-04-20 22:24 | -20.12787 | -54.88408 | 15905 ft | 190 kts | 342° |
| 2026-04-20 22:24 | -20.11524 | -54.88819 | 16219 ft | 190 kts | 342° |
| 2026-04-20 22:25 | -20.10256 | -54.89232 | 16536 ft | 191 kts | 342° |
| 2026-04-20 22:25 | -20.08984 | -54.89645 | 16858 ft | 191 kts | 342° |
| 2026-04-20 22:25 | -20.07708 | -54.90060 | 17169 ft | 192 kts | 342° |
| 2026-04-20 22:25 | -20.06428 | -54.90477 | 17475 ft | 193 kts | 342° |
| 2026-04-20 22:26 | -20.05138 | -54.90895 | 17788 ft | 194 kts | 343° |
| 2026-04-20 22:26 | -20.03844 | -54.91316 | 18106 ft | 195 kts | 342° |
| 2026-04-20 22:26 | -20.02545 | -54.91738 | 18399 ft | 195 kts | 342° |
| 2026-04-20 22:27 | -19.99933 | -54.92586 | 18919 ft | 197 kts | 342° |
| 2026-04-20 22:27 | -19.98617 | -54.93013 | 19177 ft | 198 kts | 342° |
| 2026-04-20 22:27 | -19.97293 | -54.93444 | 19436 ft | 199 kts | 341° |
| 2026-04-20 22:27 | -19.95962 | -54.93876 | 19694 ft | 201 kts | 341° |
| 2026-04-20 22:28 | -19.94625 | -54.94309 | 19950 ft | 202 kts | 341° |
| 2026-04-20 22:28 | -19.93281 | -54.94746 | 20206 ft | 203 kts | 340° |
| 2026-04-20 22:28 | -19.91927 | -54.95185 | 20454 ft | 204 kts | 340° |
| 2026-04-20 22:28 | -19.90566 | -54.95626 | 20709 ft | 205 kts | 340° |
| 2026-04-20 22:29 | -19.89200 | -54.96070 | 20965 ft | 206 kts | 340° |
| 2026-04-20 22:29 | -19.87827 | -54.96514 | 21230 ft | 207 kts | 339° |
| 2026-04-20 22:29 | -19.86446 | -54.96960 | 21475 ft | 208 kts | 340° |
| 2026-04-20 22:29 | -19.84995 | -54.97163 | 21722 ft | 212 kts | 352° |
| 2026-04-20 22:30 | -19.83523 | -54.97287 | 21974 ft | 213 kts | 350° |
| 2026-04-20 22:30 | -19.82043 | -54.97433 | 22222 ft | 214 kts | 350° |
| 2026-04-20 22:30 | -19.80553 | -54.97577 | 22452 ft | 216 kts | 350° |
| 2026-04-20 22:30 | -19.79049 | -54.97719 | 22684 ft | 218 kts | 350° |
| 2026-04-20 22:31 | -19.77536 | -54.97861 | 22929 ft | 219 kts | 350° |
| 2026-04-20 22:31 | -19.76011 | -54.98005 | 23175 ft | 220 kts | 349° |
| 2026-04-20 22:31 | -19.74481 | -54.98150 | 23407 ft | 221 kts | 349° |
| 2026-04-20 22:31 | -19.72942 | -54.98296 | 23635 ft | 223 kts | 349° |
| 2026-04-20 22:32 | -19.71398 | -54.98441 | 23827 ft | 224 kts | 349° |
| 2026-04-20 22:32 | -19.69840 | -54.98588 | 24019 ft | 225 kts | 349° |
| 2026-04-20 22:32 | -19.68278 | -54.98736 | 24210 ft | 226 kts | 349° |
| 2026-04-20 22:32 | -19.66710 | -54.98884 | 24396 ft | 227 kts | 349° |
| 2026-04-20 22:33 | -19.65132 | -54.99033 | 24580 ft | 228 kts | 349° |
| 2026-04-20 22:33 | -19.63547 | -54.99182 | 24772 ft | 229 kts | 349° |
| 2026-04-20 22:33 | -19.61956 | -54.99333 | 24957 ft | 230 kts | 349° |
| 2026-04-20 22:33 | -19.60354 | -54.99484 | 25141 ft | 231 kts | 348° |
| 2026-04-20 22:34 | -19.58748 | -54.99635 | 25315 ft | 232 kts | 348° |
| 2026-04-20 22:34 | -19.57132 | -54.99788 | 25504 ft | 233 kts | 348° |
| 2026-04-20 22:34 | -19.55513 | -54.99946 | 25685 ft | 234 kts | 348° |
| 2026-04-20 22:34 | -19.53885 | -55.00097 | 25857 ft | 236 kts | 348° |
| 2026-04-20 22:35 | -19.52241 | -55.00247 | 26014 ft | 238 kts | 348° |
| 2026-04-20 22:35 | -19.50586 | -55.00403 | 26193 ft | 239 kts | 348° |
| 2026-04-20 22:35 | -19.48926 | -55.00560 | 26376 ft | 240 kts | 348° |
| 2026-04-20 22:35 | -19.47258 | -55.00717 | 26541 ft | 241 kts | 348° |
| 2026-04-20 22:36 | -19.45583 | -55.00875 | 26724 ft | 242 kts | 348° |
| 2026-04-20 22:36 | -19.43901 | -55.01033 | 26913 ft | 242 kts | 348° |
| 2026-04-20 22:36 | -19.42230 | -55.01191 | 27084 ft | 243 kts | 348° |
| 2026-04-20 22:36 | -19.40543 | -55.01349 | 27245 ft | 244 kts | 348° |
| 2026-04-20 22:37 | -19.38849 | -55.01509 | 27413 ft | 245 kts | 348° |
| 2026-04-20 22:37 | -19.37153 | -55.01669 | 27568 ft | 246 kts | 348° |
| 2026-04-20 22:37 | -19.35444 | -55.01829 | 27726 ft | 247 kts | 348° |
| 2026-04-20 22:37 | -19.33734 | -55.01997 | 27894 ft | 247 kts | 345° |
| 2026-04-20 22:38 | -19.32085 | -55.02445 | 27959 ft | 247 kts | 335° |
| 2026-04-20 22:38 | -19.30409 | -55.02969 | 27967 ft | 255 kts | 337° |
| 2026-04-20 22:38 | -19.28676 | -55.03484 | 27967 ft | 262 kts | 338° |
| 2026-04-20 22:38 | -19.27507 | -55.03833 | 27968 ft | 266 kts | 337° |
| 2026-04-20 22:39 | -19.25118 | -55.04556 | 27959 ft | 273 kts | 338° |
| 2026-04-20 22:39 | -19.23876 | -55.04932 | 27961 ft | 276 kts | 338° |
| 2026-04-20 22:39 | -19.22020 | -55.05493 | 27960 ft | 280 kts | 338° |
| 2026-04-20 22:39 | -19.20127 | -55.06044 | 27937 ft | 284 kts | 339° |
| 2026-04-20 22:40 | -19.18215 | -55.06615 | 27933 ft | 287 kts | 338° |
| 2026-04-20 22:40 | -19.16294 | -55.07216 | 27929 ft | 289 kts | 338° |
| 2026-04-20 22:40 | -19.14355 | -55.07810 | 27930 ft | 292 kts | 338° |
| 2026-04-20 22:40 | -19.12396 | -55.08398 | 27933 ft | 293 kts | 338° |
| 2026-04-20 22:41 | -19.10433 | -55.08989 | 27937 ft | 294 kts | 338° |
| 2026-04-20 22:41 | -19.08464 | -55.09582 | 27941 ft | 295 kts | 338° |
| 2026-04-20 22:41 | -19.06484 | -55.10181 | 27943 ft | 297 kts | 338° |
| 2026-04-20 22:41 | -19.04496 | -55.10780 | 27944 ft | 298 kts | 338° |
| 2026-04-20 22:42 | -19.02502 | -55.11381 | 27944 ft | 298 kts | 338° |
| 2026-04-20 22:42 | -19.00502 | -55.11983 | 27940 ft | 299 kts | 338° |
| 2026-04-20 22:42 | -18.98497 | -55.12587 | 27941 ft | 300 kts | 338° |
| 2026-04-20 22:42 | -18.96488 | -55.13192 | 27942 ft | 301 kts | 338° |
| 2026-04-20 22:43 | -18.94480 | -55.13797 | 27938 ft | 301 kts | 338° |
| 2026-04-20 22:43 | -18.92458 | -55.14406 | 27939 ft | 301 kts | 338° |
| 2026-04-20 22:43 | -18.90440 | -55.15013 | 27938 ft | 302 kts | 338° |
| 2026-04-20 22:43 | -18.88418 | -55.15621 | 27939 ft | 302 kts | 338° |
| 2026-04-20 22:44 | -18.86393 | -55.16231 | 27930 ft | 303 kts | 338° |
| 2026-04-20 22:44 | -18.84369 | -55.16839 | 27925 ft | 303 kts | 338° |
| 2026-04-20 22:44 | -18.82340 | -55.17449 | 27923 ft | 303 kts | 339° |
| 2026-04-20 22:44 | -18.80313 | -55.18058 | 27924 ft | 303 kts | 339° |
| 2026-04-20 22:45 | -18.78283 | -55.18669 | 27925 ft | 303 kts | 338° |
| 2026-04-20 22:45 | -18.76252 | -55.19279 | 27925 ft | 303 kts | 338° |
| 2026-04-20 22:45 | -18.74222 | -55.19888 | 27913 ft | 304 kts | 339° |
| 2026-04-20 22:45 | -18.72189 | -55.20499 | 27912 ft | 304 kts | 339° |
| 2026-04-20 22:46 | -18.70155 | -55.21110 | 27912 ft | 304 kts | 339° |
| 2026-04-20 22:46 | -18.68120 | -55.21721 | 27912 ft | 304 kts | 339° |
| 2026-04-20 22:46 | -18.66085 | -55.22334 | 27912 ft | 304 kts | 339° |
| 2026-04-20 22:46 | -18.64048 | -55.22942 | 27909 ft | 304 kts | 339° |
| 2026-04-20 22:47 | -18.62009 | -55.23553 | 27907 ft | 304 kts | 339° |
| 2026-04-20 22:47 | -18.59973 | -55.24165 | 27907 ft | 305 kts | 339° |
| 2026-04-20 22:47 | -18.57934 | -55.24776 | 27907 ft | 305 kts | 339° |
| 2026-04-20 22:47 | -18.55894 | -55.25387 | 27907 ft | 305 kts | 339° |
| 2026-04-20 22:48 | -18.53858 | -55.26007 | 27907 ft | 304 kts | 338° |
| 2026-04-20 22:48 | -18.51825 | -55.26625 | 27897 ft | 304 kts | 339° |
| 2026-04-20 22:48 | -18.49783 | -55.27219 | 27898 ft | 304 kts | 339° |
| 2026-04-20 22:48 | -18.47749 | -55.27822 | 27898 ft | 304 kts | 339° |
| 2026-04-20 22:49 | -18.45726 | -55.28434 | 27898 ft | 304 kts | 339° |
| 2026-04-20 22:49 | -18.43688 | -55.29047 | 27898 ft | 303 kts | 339° |
| 2026-04-20 22:49 | -18.41655 | -55.29655 | 27891 ft | 303 kts | 339° |
| 2026-04-20 22:49 | -18.39625 | -55.30262 | 27891 ft | 303 kts | 339° |
| 2026-04-20 22:50 | -18.37598 | -55.30867 | 27890 ft | 303 kts | 339° |
| 2026-04-20 22:50 | -18.35568 | -55.31474 | 27890 ft | 303 kts | 339° |
| 2026-04-20 22:50 | -18.33539 | -55.32081 | 27890 ft | 303 kts | 339° |
| 2026-04-20 22:50 | -18.31511 | -55.32686 | 27889 ft | 303 kts | 339° |
| 2026-04-20 22:51 | -18.29484 | -55.33292 | 27891 ft | 303 kts | 339° |
| 2026-04-20 22:51 | -18.27458 | -55.33898 | 27891 ft | 303 kts | 339° |
| 2026-04-20 22:51 | -18.25432 | -55.34502 | 27891 ft | 303 kts | 339° |
| 2026-04-20 22:51 | -18.23407 | -55.35106 | 27890 ft | 303 kts | 339° |
| 2026-04-20 22:52 | -18.21376 | -55.35713 | 27876 ft | 303 kts | 339° |
| 2026-04-20 22:52 | -18.19353 | -55.36316 | 27883 ft | 303 kts | 338° |
| 2026-04-20 22:52 | -18.17324 | -55.36921 | 27883 ft | 303 kts | 338° |
| 2026-04-20 22:52 | -18.15300 | -55.37526 | 27882 ft | 303 kts | 338° |
| 2026-04-20 22:53 | -18.13271 | -55.38130 | 27882 ft | 303 kts | 338° |
| 2026-04-20 22:53 | -18.11245 | -55.38734 | 27882 ft | 303 kts | 338° |
| 2026-04-20 22:53 | -18.09217 | -55.39339 | 27876 ft | 303 kts | 338° |
| 2026-04-20 22:53 | -18.07196 | -55.39941 | 27876 ft | 303 kts | 339° |
| 2026-04-20 22:54 | -18.05163 | -55.40545 | 27880 ft | 303 kts | 338° |
| 2026-04-20 22:54 | -18.03135 | -55.41150 | 27880 ft | 303 kts | 338° |
| 2026-04-20 22:54 | -18.01109 | -55.41753 | 27880 ft | 303 kts | 338° |
| 2026-04-20 22:54 | -17.99079 | -55.42357 | 27877 ft | 303 kts | 338° |
| 2026-04-20 22:55 | -17.97053 | -55.42960 | 27878 ft | 303 kts | 338° |
| 2026-04-20 22:55 | -17.95024 | -55.43564 | 27877 ft | 303 kts | 338° |
| 2026-04-20 22:55 | -17.92999 | -55.44166 | 27877 ft | 303 kts | 339° |
| 2026-04-20 22:55 | -17.90972 | -55.44769 | 27876 ft | 303 kts | 339° |
| 2026-04-20 22:56 | -17.88938 | -55.45374 | 27875 ft | 303 kts | 339° |
| 2026-04-20 22:56 | -17.86905 | -55.45977 | 27875 ft | 304 kts | 339° |
| 2026-04-20 22:56 | -17.84871 | -55.46582 | 27876 ft | 304 kts | 339° |
| 2026-04-20 22:56 | -17.82838 | -55.47186 | 27876 ft | 304 kts | 339° |
| 2026-04-20 22:57 | -17.80801 | -55.47790 | 27878 ft | 304 kts | 339° |
| 2026-04-20 22:57 | -17.78769 | -55.48394 | 27878 ft | 304 kts | 339° |
| 2026-04-20 22:57 | -17.76728 | -55.49000 | 27875 ft | 304 kts | 339° |
| 2026-04-20 22:57 | -17.74691 | -55.49605 | 27875 ft | 304 kts | 339° |
| 2026-04-20 22:58 | -17.72652 | -55.50210 | 27873 ft | 304 kts | 339° |
| 2026-04-20 22:58 | -17.70615 | -55.50813 | 27873 ft | 305 kts | 339° |
| 2026-04-20 22:58 | -17.68574 | -55.51418 | 27873 ft | 305 kts | 339° |
| 2026-04-20 22:58 | -17.66534 | -55.52023 | 27875 ft | 304 kts | 339° |
| 2026-04-20 22:59 | -17.64498 | -55.52626 | 27874 ft | 305 kts | 339° |
| 2026-04-20 22:59 | -17.62455 | -55.53234 | 27874 ft | 305 kts | 339° |
| 2026-04-20 22:59 | -17.60418 | -55.53842 | 27874 ft | 305 kts | 339° |
| 2026-04-20 22:59 | -17.58373 | -55.54451 | 27874 ft | 305 kts | 339° |
| 2026-04-20 23:00 | -17.56333 | -55.55057 | 27892 ft | 305 kts | 339° |
| 2026-04-20 23:00 | -17.54292 | -55.55664 | 27888 ft | 305 kts | 339° |
| 2026-04-20 23:00 | -17.52251 | -55.56272 | 27888 ft | 305 kts | 339° |
| 2026-04-20 23:00 | -17.50208 | -55.56878 | 27888 ft | 305 kts | 339° |
| 2026-04-20 23:01 | -17.48165 | -55.57485 | 27888 ft | 305 kts | 339° |
| 2026-04-20 23:01 | -17.46124 | -55.58092 | 27888 ft | 305 kts | 339° |
| 2026-04-20 23:01 | -17.44078 | -55.58701 | 27888 ft | 305 kts | 339° |
| 2026-04-20 23:01 | -17.42035 | -55.59307 | 27888 ft | 306 kts | 339° |
| 2026-04-20 23:02 | -17.39988 | -55.59916 | 27880 ft | 306 kts | 339° |
| 2026-04-20 23:02 | -17.37943 | -55.60527 | 27879 ft | 306 kts | 339° |
| 2026-04-20 23:02 | -17.35900 | -55.61133 | 27878 ft | 306 kts | 339° |
| 2026-04-20 23:02 | -17.33853 | -55.61737 | 27878 ft | 306 kts | 340° |
| 2026-04-20 23:03 | -17.31805 | -55.62344 | 27877 ft | 306 kts | 340° |
| 2026-04-20 23:03 | -17.29757 | -55.62949 | 27877 ft | 306 kts | 340° |
| 2026-04-20 23:03 | -17.27713 | -55.63557 | 27877 ft | 306 kts | 339° |
| 2026-04-20 23:03 | -17.25662 | -55.64166 | 27876 ft | 306 kts | 340° |
| 2026-04-20 23:04 | -17.23617 | -55.64771 | 27880 ft | 306 kts | 340° |
| 2026-04-20 23:04 | -17.21563 | -55.65379 | 27880 ft | 306 kts | 340° |
| 2026-04-20 23:04 | -17.19515 | -55.65986 | 27880 ft | 306 kts | 339° |
| 2026-04-20 23:04 | -17.17467 | -55.66593 | 27882 ft | 306 kts | 340° |
| 2026-04-20 23:05 | -17.15417 | -55.67200 | 27877 ft | 306 kts | 340° |
| 2026-04-20 23:05 | -17.13363 | -55.67808 | 27878 ft | 306 kts | 340° |
| 2026-04-20 23:05 | -17.11315 | -55.68414 | 27883 ft | 306 kts | 340° |
| 2026-04-20 23:05 | -17.09264 | -55.69020 | 27883 ft | 306 kts | 340° |
| 2026-04-20 23:06 | -17.07212 | -55.69628 | 27882 ft | 306 kts | 340° |
| 2026-04-20 23:06 | -17.05162 | -55.70235 | 27882 ft | 306 kts | 340° |
| 2026-04-20 23:06 | -17.03109 | -55.70842 | 27882 ft | 307 kts | 340° |
| 2026-04-20 23:06 | -17.01058 | -55.71448 | 27882 ft | 307 kts | 340° |
| 2026-04-20 23:07 | -16.99003 | -55.72055 | 27882 ft | 306 kts | 340° |
| 2026-04-20 23:07 | -16.97342 | -55.72546 | 27882 ft | 306 kts | 340° |
| 2026-04-20 23:07 | -16.95290 | -55.73152 | 27882 ft | 307 kts | 340° |
| 2026-04-20 23:07 | -16.93319 | -55.73735 | 27882 ft | 306 kts | 340° |
| 2026-04-20 23:08 | -16.91252 | -55.74345 | 27882 ft | 306 kts | 340° |
| 2026-04-20 23:08 | -16.89200 | -55.74948 | 27882 ft | 307 kts | 340° |
| 2026-04-20 23:08 | -16.87148 | -55.75556 | 27882 ft | 307 kts | 340° |
| 2026-04-20 23:08 | -16.85102 | -55.76164 | 27883 ft | 306 kts | 340° |
| 2026-04-20 23:09 | -16.83045 | -55.76769 | 27882 ft | 307 kts | 340° |
| 2026-04-20 23:09 | -16.80993 | -55.77372 | 27882 ft | 307 kts | 340° |
| 2026-04-20 23:09 | -16.78939 | -55.77978 | 27885 ft | 307 kts | 340° |
| 2026-04-20 23:09 | -16.76887 | -55.78584 | 27882 ft | 307 kts | 341° |
| 2026-04-20 23:10 | -16.74833 | -55.79190 | 27886 ft | 306 kts | 341° |
| 2026-04-20 23:10 | -16.72783 | -55.79794 | 27886 ft | 306 kts | 341° |
| 2026-04-20 23:10 | -16.70732 | -55.80398 | 27886 ft | 306 kts | 341° |
| 2026-04-20 23:10 | -16.68681 | -55.81003 | 27886 ft | 306 kts | 341° |
| 2026-04-20 23:11 | -16.66633 | -55.81606 | 27885 ft | 306 kts | 341° |
| 2026-04-20 23:11 | -16.64584 | -55.82209 | 27885 ft | 306 kts | 341° |
| 2026-04-20 23:11 | -16.62537 | -55.82810 | 27885 ft | 306 kts | 341° |
| 2026-04-20 23:11 | -16.60490 | -55.83413 | 27884 ft | 306 kts | 341° |
| 2026-04-20 23:12 | -16.58444 | -55.84017 | 27881 ft | 306 kts | 341° |
| 2026-04-20 23:12 | -16.56397 | -55.84619 | 27883 ft | 305 kts | 341° |
| 2026-04-20 23:12 | -16.54355 | -55.85223 | 27882 ft | 305 kts | 341° |
| 2026-04-20 23:12 | -16.52311 | -55.85823 | 27881 ft | 305 kts | 341° |
| 2026-04-20 23:13 | -16.50266 | -55.86420 | 27883 ft | 305 kts | 341° |
| 2026-04-20 23:13 | -16.48239 | -55.87054 | 27880 ft | 304 kts | 340° |
| 2026-04-20 23:13 | -16.46212 | -55.87675 | 27884 ft | 304 kts | 341° |
| 2026-04-20 23:13 | -16.44168 | -55.88245 | 27883 ft | 304 kts | 342° |
| 2026-04-20 23:14 | -16.42131 | -55.88821 | 27885 ft | 303 kts | 341° |
| 2026-04-20 23:14 | -16.40095 | -55.89407 | 27884 ft | 303 kts | 341° |
| 2026-04-20 23:14 | -16.38071 | -55.90014 | 27885 ft | 303 kts | 341° |
| 2026-04-20 23:14 | -16.36039 | -55.90608 | 27887 ft | 303 kts | 341° |
| 2026-04-20 23:15 | -16.34004 | -55.91195 | 27889 ft | 304 kts | 341° |
| 2026-04-20 23:15 | -16.31970 | -55.91795 | 27890 ft | 304 kts | 341° |
| 2026-04-20 23:15 | -16.29937 | -55.92398 | 27892 ft | 304 kts | 341° |
| 2026-04-20 23:15 | -16.27900 | -55.92996 | 27891 ft | 304 kts | 342° |
| 2026-04-20 23:16 | -16.25859 | -55.93592 | 27889 ft | 305 kts | 342° |
| 2026-04-20 23:16 | -16.23819 | -55.94190 | 27890 ft | 305 kts | 342° |
| 2026-04-20 23:16 | -16.21774 | -55.94790 | 27890 ft | 305 kts | 342° |
| 2026-04-20 23:16 | -16.19730 | -55.95389 | 27891 ft | 305 kts | 342° |
| 2026-04-20 23:17 | -16.17683 | -55.95988 | 27890 ft | 306 kts | 342° |
| 2026-04-20 23:17 | -16.15637 | -55.96587 | 27891 ft | 306 kts | 342° |
| 2026-04-20 23:17 | -16.13589 | -55.97188 | 27893 ft | 306 kts | 342° |
| 2026-04-20 23:17 | -16.11540 | -55.97787 | 27894 ft | 306 kts | 342° |
| 2026-04-20 23:18 | -16.09489 | -55.98388 | 27894 ft | 306 kts | 342° |
| 2026-04-20 23:18 | -16.07440 | -55.98987 | 27894 ft | 306 kts | 342° |
| 2026-04-20 23:18 | -16.06082 | -55.99384 | 27894 ft | 306 kts | 342° |
| 2026-04-20 23:18 | -16.03338 | -56.00187 | 27892 ft | 306 kts | 342° |
| 2026-04-20 23:19 | -16.01284 | -56.00788 | 27889 ft | 306 kts | 342° |
| 2026-04-20 23:19 | -15.99927 | -56.01185 | 27890 ft | 307 kts | 342° |
| 2026-04-20 23:19 | -15.97873 | -56.01785 | 27890 ft | 307 kts | 342° |
| 2026-04-20 23:19 | -15.95815 | -56.02386 | 27889 ft | 307 kts | 342° |
| 2026-04-20 23:20 | -15.93762 | -56.02987 | 27891 ft | 307 kts | 342° |
| 2026-04-20 23:20 | -15.91705 | -56.03588 | 27890 ft | 307 kts | 342° |
| 2026-04-20 23:20 | -15.89651 | -56.04187 | 27889 ft | 307 kts | 342° |
| 2026-04-20 23:20 | -15.87594 | -56.04788 | 27888 ft | 307 kts | 342° |
| 2026-04-20 23:21 | -15.85536 | -56.05390 | 27888 ft | 307 kts | 342° |
| 2026-04-20 23:21 | -15.83478 | -56.05991 | 27888 ft | 307 kts | 342° |
| 2026-04-20 23:21 | -15.81418 | -56.06591 | 27888 ft | 307 kts | 342° |
| 2026-04-20 23:21 | -15.79360 | -56.07191 | 27888 ft | 307 kts | 342° |
| 2026-04-20 23:22 | -15.77291 | -56.07797 | 27721 ft | 313 kts | 342° |
| 2026-04-20 23:22 | -15.75177 | -56.08411 | 27354 ft | 317 kts | 342° |
| 2026-04-20 23:22 | -15.73057 | -56.09042 | 27000 ft | 318 kts | 342° |
| 2026-04-20 23:22 | -15.70924 | -56.09668 | 26646 ft | 318 kts | 342° |
| 2026-04-20 23:23 | -15.68789 | -56.10279 | 26300 ft | 319 kts | 342° |
| 2026-04-20 23:23 | -15.66650 | -56.10879 | 25950 ft | 319 kts | 345° |
| 2026-04-20 23:23 | -15.64439 | -56.11081 | 25596 ft | 320 kts | 1° |
| 2026-04-20 23:23 | -15.62218 | -56.10876 | 25257 ft | 320 kts | 5° |
| 2026-04-20 23:24 | -15.60005 | -56.10661 | 24921 ft | 319 kts | 4° |
| 2026-04-20 23:24 | -15.57794 | -56.10457 | 24590 ft | 318 kts | 4° |
| 2026-04-20 23:24 | -15.55594 | -56.10248 | 24263 ft | 317 kts | 4° |
| 2026-04-20 23:24 | -15.53400 | -56.10036 | 23940 ft | 316 kts | 4° |
| 2026-04-20 23:25 | -15.51214 | -56.09827 | 23620 ft | 315 kts | 4° |
| 2026-04-20 23:25 | -15.49036 | -56.09622 | 23267 ft | 314 kts | 4° |
| 2026-04-20 23:25 | -15.46869 | -56.09423 | 22886 ft | 312 kts | 4° |
| 2026-04-20 23:25 | -15.44712 | -56.09221 | 22519 ft | 310 kts | 5° |
| 2026-04-20 23:26 | -15.42573 | -56.09002 | 22144 ft | 308 kts | 5° |
| 2026-04-20 23:26 | -15.40444 | -56.08790 | 21777 ft | 306 kts | 5° |
| 2026-04-20 23:26 | -15.38336 | -56.08593 | 21414 ft | 303 kts | 5° |
| 2026-04-20 23:26 | -15.36239 | -56.08399 | 21053 ft | 301 kts | 5° |
| 2026-04-20 23:27 | -15.34165 | -56.08201 | 20700 ft | 298 kts | 5° |
| 2026-04-20 23:27 | -15.32107 | -56.08003 | 20348 ft | 296 kts | 5° |
| 2026-04-20 23:27 | -15.30072 | -56.07811 | 20002 ft | 293 kts | 6° |
| 2026-04-20 23:27 | -15.28048 | -56.07619 | 19656 ft | 290 kts | 6° |
| 2026-04-20 23:28 | -15.26048 | -56.07428 | 19314 ft | 288 kts | 6° |
| 2026-04-20 23:28 | -15.24036 | -56.07236 | 18973 ft | 285 kts | 6° |
| 2026-04-20 23:28 | -15.22075 | -56.07051 | 18645 ft | 282 kts | 6° |
| 2026-04-20 23:28 | -15.20127 | -56.06866 | 18312 ft | 280 kts | 6° |
| 2026-04-20 23:29 | -15.18197 | -56.06681 | 17955 ft | 277 kts | 6° |
| 2026-04-20 23:29 | -15.16348 | -56.06507 | 17920 ft | 264 kts | 6° |
| 2026-04-20 23:29 | -15.14552 | -56.06341 | 17912 ft | 254 kts | 6° |
| 2026-04-20 23:29 | -15.12814 | -56.06177 | 17912 ft | 248 kts | 6° |
| 2026-04-20 23:30 | -15.11115 | -56.06014 | 17915 ft | 243 kts | 6° |
| 2026-04-20 23:30 | -15.09443 | -56.05855 | 17915 ft | 240 kts | 6° |
| 2026-04-20 23:30 | -15.07790 | -56.05698 | 17915 ft | 237 kts | 6° |
| 2026-04-20 23:30 | -15.06129 | -56.05541 | 17914 ft | 236 kts | 6° |
| 2026-04-20 23:31 | -15.04521 | -56.05388 | 17916 ft | 235 kts | 6° |
| 2026-04-20 23:31 | -15.02898 | -56.05233 | 17913 ft | 234 kts | 7° |
| 2026-04-20 23:31 | -15.01278 | -56.05079 | 17915 ft | 233 kts | 7° |
| 2026-04-20 23:31 | -14.99662 | -56.04925 | 17914 ft | 233 kts | 6° |
| 2026-04-20 23:32 | -14.98047 | -56.04773 | 17912 ft | 233 kts | 6° |
| 2026-04-20 23:32 | -14.96434 | -56.04620 | 17911 ft | 233 kts | 7° |
| 2026-04-20 23:32 | -14.94825 | -56.04467 | 17913 ft | 232 kts | 7° |
| 2026-04-20 23:32 | -14.93215 | -56.04314 | 17912 ft | 232 kts | 6° |
| 2026-04-20 23:33 | -14.91608 | -56.04162 | 17917 ft | 232 kts | 7° |
| 2026-04-20 23:33 | -14.89997 | -56.04009 | 17916 ft | 232 kts | 6° |
| 2026-04-20 23:33 | -14.88390 | -56.03857 | 17915 ft | 232 kts | 6° |
| 2026-04-20 23:33 | -14.86784 | -56.03694 | 17913 ft | 231 kts | 9° |
| 2026-04-20 23:34 | -14.85277 | -56.03159 | 17910 ft | 229 kts | 30° |
| 2026-04-20 23:34 | -14.83902 | -56.02329 | 17915 ft | 229 kts | 31° |
| 2026-04-20 23:34 | -14.82518 | -56.01510 | 17916 ft | 229 kts | 31° |
| 2026-04-20 23:34 | -14.81133 | -56.00691 | 17918 ft | 229 kts | 31° |
| 2026-04-20 23:35 | -14.79718 | -55.99929 | 17921 ft | 231 kts | 20° |
| 2026-04-20 23:35 | -14.76530 | -55.99499 | 17929 ft | 232 kts | 7° |
| 2026-04-20 23:35 | -14.74937 | -55.99269 | 17928 ft | 231 kts | 11° |
| 2026-04-20 23:36 | -14.73351 | -55.98973 | 17923 ft | 231 kts | 12° |
| 2026-04-20 23:36 | -14.71764 | -55.98686 | 17924 ft | 232 kts | 11° |
| 2026-04-20 23:36 | -14.70156 | -55.98414 | 17929 ft | 239 kts | 10° |
| 2026-04-20 23:36 | -14.68482 | -55.98132 | 17929 ft | 248 kts | 11° |
| 2026-04-20 23:37 | -14.66762 | -55.97824 | 17929 ft | 254 kts | 11° |
| 2026-04-20 23:37 | -14.65002 | -55.97512 | 17930 ft | 259 kts | 11° |
| 2026-04-20 23:37 | -14.63215 | -55.97203 | 17931 ft | 262 kts | 11° |
| 2026-04-20 23:37 | -14.61411 | -55.96891 | 17936 ft | 264 kts | 11° |
| 2026-04-20 23:38 | -14.59591 | -55.96574 | 17931 ft | 266 kts | 11° |
| 2026-04-20 23:38 | -14.57761 | -55.96256 | 17934 ft | 267 kts | 11° |
| 2026-04-20 23:38 | -14.55923 | -55.95936 | 17932 ft | 269 kts | 11° |
| 2026-04-20 23:38 | -14.54074 | -55.95616 | 17931 ft | 269 kts | 11° |
| 2026-04-20 23:39 | -14.52226 | -55.95295 | 17936 ft | 270 kts | 11° |
| 2026-04-20 23:39 | -14.50372 | -55.94972 | 17936 ft | 270 kts | 11° |
| 2026-04-20 23:39 | -14.48513 | -55.94650 | 17935 ft | 271 kts | 11° |
| 2026-04-20 23:39 | -14.46655 | -55.94328 | 17934 ft | 271 kts | 11° |
| 2026-04-20 23:40 | -14.44795 | -55.94005 | 17936 ft | 271 kts | 11° |
| 2026-04-20 23:40 | -14.42934 | -55.93682 | 17937 ft | 271 kts | 11° |
| 2026-04-20 23:40 | -14.41073 | -55.93359 | 17937 ft | 271 kts | 11° |
| 2026-04-20 23:40 | -14.39214 | -55.93036 | 17937 ft | 271 kts | 11° |
| 2026-04-20 23:41 | -14.37348 | -55.92713 | 17935 ft | 271 kts | 11° |
| 2026-04-20 23:41 | -14.35490 | -55.92390 | 17940 ft | 271 kts | 11° |
| 2026-04-20 23:41 | -14.33622 | -55.92067 | 17940 ft | 271 kts | 11° |
| 2026-04-20 23:41 | -14.31761 | -55.91744 | 17940 ft | 271 kts | 11° |
| 2026-04-20 23:42 | -14.29897 | -55.91421 | 17934 ft | 271 kts | 11° |
| 2026-04-20 23:42 | -14.28037 | -55.91098 | 17934 ft | 271 kts | 11° |
| 2026-04-20 23:42 | -14.26175 | -55.90775 | 17934 ft | 271 kts | 11° |
| 2026-04-20 23:42 | -14.24312 | -55.90454 | 17945 ft | 271 kts | 11° |
| 2026-04-20 23:43 | -14.22449 | -55.90131 | 17941 ft | 272 kts | 11° |
| 2026-04-20 23:43 | -14.20584 | -55.89807 | 17942 ft | 272 kts | 11° |
| 2026-04-20 23:43 | -14.18717 | -55.89484 | 17945 ft | 272 kts | 11° |
| 2026-04-20 23:43 | -14.16850 | -55.89164 | 17942 ft | 272 kts | 11° |
| 2026-04-20 23:44 | -14.14979 | -55.88848 | 17947 ft | 272 kts | 10° |
| 2026-04-20 23:44 | -14.13113 | -55.88520 | 17946 ft | 272 kts | 11° |
| 2026-04-20 23:44 | -14.11246 | -55.88190 | 17949 ft | 272 kts | 11° |
| 2026-04-20 23:44 | -14.09375 | -55.87873 | 17949 ft | 272 kts | 11° |
| 2026-04-20 23:45 | -14.07508 | -55.87545 | 17949 ft | 272 kts | 11° |
| 2026-04-20 23:45 | -14.05638 | -55.87216 | 17950 ft | 273 kts | 11° |
| 2026-04-20 23:45 | -14.03765 | -55.86895 | 17949 ft | 273 kts | 11° |
| 2026-04-20 23:45 | -14.01891 | -55.86601 | 17948 ft | 272 kts | 9° |
| 2026-04-20 23:46 | -14.00053 | -55.86289 | 17945 ft | 272 kts | 11° |
| 2026-04-20 23:46 | -13.98190 | -55.85943 | 17945 ft | 272 kts | 11° |
| 2026-04-20 23:46 | -13.96330 | -55.85616 | 17944 ft | 272 kts | 11° |
| 2026-04-20 23:46 | -13.94463 | -55.85286 | 17944 ft | 272 kts | 11° |
| 2026-04-20 23:47 | -13.92595 | -55.84969 | 17943 ft | 272 kts | 10° |
| 2026-04-20 23:47 | -13.90726 | -55.84655 | 17942 ft | 272 kts | 11° |
| 2026-04-20 23:47 | -13.88859 | -55.84331 | 17942 ft | 272 kts | 11° |
| 2026-04-20 23:47 | -13.86990 | -55.84002 | 17942 ft | 273 kts | 11° |
| 2026-04-20 23:48 | -13.85119 | -55.83678 | 17939 ft | 273 kts | 11° |
| 2026-04-20 23:48 | -13.83248 | -55.83355 | 17939 ft | 273 kts | 11° |
| 2026-04-20 23:48 | -13.81377 | -55.83032 | 17939 ft | 273 kts | 11° |
| 2026-04-20 23:48 | -13.79506 | -55.82712 | 17939 ft | 273 kts | 11° |
| 2026-04-20 23:49 | -13.77633 | -55.82391 | 17942 ft | 273 kts | 11° |
| 2026-04-20 23:49 | -13.75760 | -55.82067 | 17941 ft | 273 kts | 11° |
| 2026-04-20 23:49 | -13.73888 | -55.81741 | 17941 ft | 273 kts | 11° |
| 2026-04-20 23:49 | -13.72017 | -55.81420 | 17941 ft | 273 kts | 11° |
| 2026-04-20 23:50 | -13.70146 | -55.81098 | 17943 ft | 273 kts | 11° |
| 2026-04-20 23:50 | -13.68275 | -55.80775 | 17943 ft | 273 kts | 11° |
| 2026-04-20 23:50 | -13.66404 | -55.80451 | 17943 ft | 273 kts | 11° |
| 2026-04-20 23:50 | -13.64531 | -55.80127 | 17942 ft | 273 kts | 11° |
| 2026-04-20 23:51 | -13.62657 | -55.79805 | 17939 ft | 273 kts | 11° |
| 2026-04-20 23:51 | -13.60785 | -55.79483 | 17939 ft | 273 kts | 11° |
| 2026-04-20 23:51 | -13.58913 | -55.79160 | 17938 ft | 273 kts | 11° |
| 2026-04-20 23:51 | -13.57037 | -55.78836 | 17938 ft | 273 kts | 11° |
| 2026-04-20 23:52 | -13.55162 | -55.78514 | 17941 ft | 273 kts | 11° |
| 2026-04-20 23:52 | -13.53285 | -55.78192 | 17941 ft | 273 kts | 11° |
| 2026-04-20 23:52 | -13.51410 | -55.77869 | 17941 ft | 273 kts | 11° |
| 2026-04-20 23:52 | -13.49533 | -55.77545 | 17941 ft | 273 kts | 11° |
| 2026-04-20 23:53 | -13.47633 | -55.77218 | 17938 ft | 274 kts | 11° |
| 2026-04-20 23:53 | -13.45756 | -55.76895 | 17938 ft | 274 kts | 11° |
| 2026-04-20 23:53 | -13.43876 | -55.76572 | 17938 ft | 274 kts | 11° |
| 2026-04-20 23:53 | -13.41998 | -55.76250 | 17938 ft | 274 kts | 11° |
| 2026-04-20 23:54 | -13.40118 | -55.75926 | 17937 ft | 274 kts | 11° |
| 2026-04-20 23:54 | -13.38241 | -55.75603 | 17937 ft | 274 kts | 11° |
| 2026-04-20 23:54 | -13.36367 | -55.75281 | 17937 ft | 274 kts | 11° |
| 2026-04-20 23:54 | -13.34485 | -55.74957 | 17936 ft | 274 kts | 11° |
| 2026-04-20 23:55 | -13.32609 | -55.74634 | 17936 ft | 274 kts | 11° |
| 2026-04-20 23:55 | -13.30731 | -55.74312 | 17936 ft | 274 kts | 11° |
| 2026-04-20 23:55 | -13.28855 | -55.73990 | 17936 ft | 274 kts | 11° |
| 2026-04-20 23:55 | -13.27004 | -55.73671 | 17936 ft | 274 kts | 11° |
| 2026-04-20 23:56 | -13.25101 | -55.73343 | 17936 ft | 274 kts | 11° |
| 2026-04-20 23:56 | -13.23222 | -55.73022 | 17936 ft | 274 kts | 11° |
| 2026-04-20 23:56 | -13.21343 | -55.72699 | 17935 ft | 274 kts | 11° |
| 2026-04-20 23:56 | -13.19469 | -55.72376 | 17935 ft | 274 kts | 11° |
| 2026-04-20 23:57 | -13.17618 | -55.72059 | 17935 ft | 274 kts | 11° |
| 2026-04-20 23:57 | -13.15739 | -55.71737 | 17935 ft | 274 kts | 11° |
| 2026-04-20 23:57 | -13.13860 | -55.71415 | 17935 ft | 274 kts | 11° |
| 2026-04-20 23:57 | -13.11988 | -55.71094 | 17935 ft | 274 kts | 11° |
| 2026-04-20 23:58 | -13.10103 | -55.70770 | 17935 ft | 274 kts | 11° |
| 2026-04-20 23:58 | -13.08232 | -55.70448 | 17935 ft | 274 kts | 11° |
| 2026-04-20 23:58 | -13.06346 | -55.70126 | 17935 ft | 274 kts | 11° |
| 2026-04-20 23:58 | -13.04468 | -55.69804 | 17935 ft | 274 kts | 11° |
| 2026-04-20 23:59 | -13.02589 | -55.69482 | 17934 ft | 274 kts | 11° |
| 2026-04-20 23:59 | -13.00709 | -55.69160 | 17938 ft | 274 kts | 11° |
| 2026-04-20 23:59 | -12.98832 | -55.68838 | 17937 ft | 274 kts | 11° |
| 2026-04-20 23:59 | -12.96954 | -55.68515 | 17937 ft | 274 kts | 11° |
| 2026-04-21 00:00 | -12.95685 | -55.68298 | 17940 ft | 273 kts | 11° |
| 2026-04-21 00:00 | -12.93201 | -55.67874 | 17942 ft | 273 kts | 11° |
| 2026-04-21 00:00 | -12.91932 | -55.67656 | 17942 ft | 274 kts | 11° |
| 2026-04-21 00:00 | -12.90054 | -55.67334 | 17942 ft | 274 kts | 11° |
| 2026-04-21 00:01 | -12.88178 | -55.67013 | 17943 ft | 274 kts | 11° |
| 2026-04-21 00:01 | -12.86299 | -55.66691 | 17943 ft | 274 kts | 11° |
| 2026-04-21 00:01 | -12.84419 | -55.66370 | 17943 ft | 274 kts | 11° |
| 2026-04-21 00:01 | -12.82541 | -55.66048 | 17943 ft | 274 kts | 11° |
| 2026-04-21 00:02 | -12.80662 | -55.65726 | 17943 ft | 274 kts | 11° |
| 2026-04-21 00:02 | -12.78783 | -55.65406 | 17943 ft | 274 kts | 11° |
| 2026-04-21 00:02 | -12.76909 | -55.65083 | 17941 ft | 271 kts | 11° |
| 2026-04-21 00:02 | -12.75103 | -55.64760 | 17781 ft | 260 kts | 11° |
| 2026-04-21 00:03 | -12.73322 | -55.64457 | 17418 ft | 259 kts | 11° |
| 2026-04-21 00:03 | -12.71546 | -55.64163 | 17070 ft | 258 kts | 11° |
| 2026-04-21 00:03 | -12.69783 | -55.63863 | 16716 ft | 256 kts | 11° |
| 2026-04-21 00:03 | -12.68031 | -55.63563 | 16374 ft | 254 kts | 11° |
| 2026-04-21 00:04 | -12.66291 | -55.63265 | 16034 ft | 253 kts | 11° |
| 2026-04-21 00:04 | -12.64561 | -55.62969 | 15702 ft | 251 kts | 11° |
| 2026-04-21 00:04 | -12.62844 | -55.62677 | 15373 ft | 250 kts | 11° |
| 2026-04-21 00:04 | -12.61136 | -55.62384 | 15044 ft | 248 kts | 11° |
| 2026-04-21 00:05 | -12.59439 | -55.62095 | 14723 ft | 247 kts | 11° |
| 2026-04-21 00:05 | -12.57752 | -55.61807 | 14404 ft | 245 kts | 11° |
| 2026-04-21 00:05 | -12.56076 | -55.61520 | 14087 ft | 244 kts | 11° |
| 2026-04-21 00:05 | -12.54410 | -55.61236 | 13775 ft | 242 kts | 11° |
| 2026-04-21 00:06 | -12.52730 | -55.60950 | 13415 ft | 241 kts | 11° |
| 2026-04-21 00:06 | -12.51083 | -55.60668 | 13062 ft | 239 kts | 11° |
| 2026-04-21 00:06 | -12.49447 | -55.60388 | 12714 ft | 238 kts | 11° |
| 2026-04-21 00:06 | -12.47824 | -55.60112 | 12370 ft | 236 kts | 11° |
| 2026-04-21 00:07 | -12.46207 | -55.59837 | 12028 ft | 234 kts | 11° |
| 2026-04-21 00:07 | -12.44604 | -55.59574 | 11691 ft | 233 kts | 10° |
| 2026-04-21 00:07 | -12.43012 | -55.59306 | 11356 ft | 231 kts | 11° |
| 2026-04-21 00:07 | -12.41434 | -55.59022 | 11029 ft | 229 kts | 11° |
| 2026-04-21 00:08 | -12.39863 | -55.58758 | 10700 ft | 228 kts | 10° |
| 2026-04-21 00:08 | -12.38302 | -55.58494 | 10376 ft | 227 kts | 11° |
| 2026-04-21 00:08 | -12.36751 | -55.58227 | 10056 ft | 225 kts | 11° |
| 2026-04-21 00:08 | -12.35207 | -55.57964 | 9728 ft | 224 kts | 11° |
| 2026-04-21 00:09 | -12.33672 | -55.57703 | 9371 ft | 223 kts | 11° |
| 2026-04-21 00:09 | -12.32150 | -55.57443 | 9022 ft | 221 kts | 11° |
| 2026-04-21 00:09 | -12.30637 | -55.57184 | 8677 ft | 220 kts | 11° |
| 2026-04-21 00:09 | -12.29132 | -55.56929 | 8334 ft | 218 kts | 11° |
| 2026-04-21 00:10 | -12.27642 | -55.56676 | 7997 ft | 217 kts | 11° |
| 2026-04-21 00:10 | -12.26161 | -55.56422 | 7662 ft | 215 kts | 11° |
| 2026-04-21 00:10 | -12.24692 | -55.56170 | 7330 ft | 213 kts | 11° |
| 2026-04-21 00:10 | -12.23230 | -55.55922 | 7001 ft | 212 kts | 11° |
| 2026-04-21 00:11 | -12.21783 | -55.55676 | 6678 ft | 210 kts | 11° |
| 2026-04-21 00:11 | -12.20343 | -55.55431 | 6355 ft | 209 kts | 12° |
| 2026-04-21 00:11 | -12.18915 | -55.55187 | 6013 ft | 208 kts | 11° |
| 2026-04-21 00:11 | -12.17494 | -55.54945 | 5671 ft | 206 kts | 11° |
| 2026-04-21 00:12 | -12.16080 | -55.54705 | 5329 ft | 205 kts | 11° |
| 2026-04-21 00:12 | -12.14727 | -55.54475 | 5006 ft | 204 kts | 11° |
| 2026-04-21 00:12 | -12.13428 | -55.54254 | 4945 ft | 193 kts | 11° |
| 2026-04-21 00:12 | -12.12126 | -55.54038 | 4936 ft | 185 kts | 11° |
| 2026-04-21 00:13 | -12.10872 | -55.53825 | 4939 ft | 181 kts | 11° |
| 2026-04-21 00:13 | -12.09624 | -55.53767 | 4938 ft | 181 kts | 351° |
| 2026-04-21 00:13 | -12.08463 | -55.54257 | 4939 ft | 183 kts | 327° |
| 2026-04-21 00:13 | -12.07594 | -55.55203 | 4942 ft | 185 kts | 302° |
| 2026-04-21 00:14 | -12.07149 | -55.56446 | 4813 ft | 192 kts | 284° |
| 2026-04-21 00:14 | -12.06808 | -55.57793 | 4584 ft | 198 kts | 285° |
| 2026-04-21 00:14 | -12.06447 | -55.59162 | 4349 ft | 201 kts | 285° |
| 2026-04-21 00:14 | -12.05987 | -55.60499 | 4129 ft | 199 kts | 301° |
| 2026-04-21 00:15 | -12.05095 | -55.61547 | 4000 ft | 194 kts | 322° |
| 2026-04-21 00:15 | -12.03929 | -55.62193 | 3823 ft | 192 kts | 342° |
| 2026-04-21 00:15 | -12.02601 | -55.62369 | 3460 ft | 187 kts | 5° |
| 2026-04-21 00:15 | -12.01422 | -55.62109 | 3089 ft | 163 kts | 17° |
| 2026-04-21 00:16 | -12.00367 | -55.61818 | 2797 ft | 148 kts | 15° |
| 2026-04-21 00:16 | -11.99447 | -55.61581 | 2779 ft | 127 kts | 15° |
| 2026-04-21 00:16 | -11.98634 | -55.61372 | 2776 ft | 113 kts | 15° |
| 2026-04-21 00:16 | -11.97899 | -55.61179 | 2694 ft | 110 kts | 15° |
| 2026-04-21 00:17 | -11.97146 | -55.60968 | 2512 ft | 112 kts | 16° |
| 2026-04-21 00:17 | -11.96408 | -55.60771 | 2397 ft | 110 kts | 15° |
| 2026-04-21 00:17 | -11.95686 | -55.60570 | 2404 ft | 97 kts | 14° |
| 2026-04-21 00:17 | -11.95058 | -55.60425 | 2614 ft | 93 kts | 14° |
| 2026-04-21 00:18 | -11.94375 | -55.60228 | 2553 ft | 103 kts | 17° |
| 2026-04-21 00:18 | -11.93723 | -55.60052 | 2453 ft | 99 kts | 14° |
| 2026-04-21 00:18 | -11.93013 | -55.59853 | 2086 ft | 108 kts | 16° |
| 2026-04-21 00:18 | -11.92308 | -55.59663 | 1886 ft | 102 kts | 14° |
| 2026-04-21 00:19 | -11.91637 | -55.59484 | 1744 ft | 98 kts | 14° |
| 2026-04-21 00:19 | -11.90983 | -55.59309 | 1615 ft | 97 kts | 14° |
| 2026-04-21 00:19 | -11.90333 | -55.59148 | 1500 ft | 95 kts | 16° |
| 2026-04-21 00:19 | -11.89705 | -55.58966 | 1376 ft | 93 kts | 14° |
| 2026-04-21 00:20 | -11.89106 | -55.58793 | 1247 ft | 85 kts | 15° |
| 2026-04-21 00:20 | -11.88602 | -55.58658 | 1240 ft | 66 kts | 14° |
| 2026-04-21 00:20 | -11.88299 | -55.58576 | 1241 ft | 33 kts | 15° |
| 2026-04-21 00:20 | -11.88088 | -55.58518 | 1239 ft | 29 kts | 15° |
| 2026-04-21 00:21 | -11.87935 | -55.58477 | 1237 ft | 19 kts | 14° |
| 2026-04-21 00:21 | -11.87840 | -55.58449 | 1236 ft | 12 kts | 31° |
| 2026-04-21 00:21 | -11.87830 | -55.58392 | 1247 ft | 6 kts | 107° |
| 2026-04-21 00:21 | -11.87837 | -55.58364 | 1238 ft | 2 kts | 105° |
| 2026-04-21 00:22 | -11.87838 | -55.58362 | 1238 ft | 1 kts | 105° |
| 2026-04-21 00:22 | -11.87848 | -55.58295 | 1239 ft | 13 kts | 55° |
| 2026-04-21 00:22 | -11.87811 | -55.58256 | 1239 ft | 6 kts | 105° |
| 2026-04-21 00:22 | -11.87820 | -55.58221 | 1242 ft | 0 kts | 104° |
| 2026-04-21 00:23 | -11.87842 | -55.58241 | 1241 ft | 14 kts | 256° |
| 2026-04-21 00:23 | -11.87931 | -55.58297 | 1246 ft | 15 kts | 128° |
| 2026-04-21 00:23 | -11.87963 | -55.58261 | 1239 ft | 7 kts | 200° |
| 2026-04-21 00:24 | -11.87979 | -55.58296 | 1241 ft | 5 kts | 291° |
| 2026-04-21 00:24 | -11.87963 | -55.58301 | 1247 ft | 1 kts | 21° |
| 2026-04-21 00:24 | -11.87951 | -55.58297 | 1248 ft | 0 kts | 13° |